sensor_id;sensor_type;location;lat;lon;timestamp;P1;durP1;ratioP1;P2;durP2;ratioP2
11039;SDS011;5573;49.592;8.662;2022-08-21T00:00:35;438.70;;;410.17;;
11039;SDS011;5573;49.592;8.662;2022-08-21T00:03:30;419.88;;;392.85;;
11039;SDS011;5573;49.592;8.662;2022-08-21T00:06:18;427.95;;;400.02;;
11039;SDS011;5573;49.592;8.662;2022-08-21T00:09:07;420.73;;;392.85;;
11039;SDS011;5573;49.592;8.662;2022-08-21T00:11:56;420.40;;;393.17;;
11039;SDS011;5573;49.592;8.662;2022-08-21T00:14:44;389.42;;;363.60;;
11039;SDS011;5573;49.592;8.662;2022-08-21T00:17:33;404.63;;;378.38;;
11039;SDS011;5573;49.592;8.662;2022-08-21T00:20:22;407.80;;;380.75;;
11039;SDS011;5573;49.592;8.662;2022-08-21T00:23:11;391.42;;;365.55;;
11039;SDS011;5573;49.592;8.662;2022-08-21T00:25:59;400.80;;;373.98;;
11039;SDS011;5573;49.592;8.662;2022-08-21T00:28:47;397.90;;;371.40;;
11039;SDS011;5573;49.592;8.662;2022-08-21T00:31:36;424.13;;;396.35;;
11039;SDS011;5573;49.592;8.662;2022-08-21T00:34:26;380.85;;;355.63;;
11039;SDS011;5573;49.592;8.662;2022-08-21T00:37:14;393.15;;;367.40;;
11039;SDS011;5573;49.592;8.662;2022-08-21T00:40:02;399.40;;;372.85;;
11039;SDS011;5573;49.592;8.662;2022-08-21T00:42:50;403.15;;;376.75;;
11039;SDS011;5573;49.592;8.662;2022-08-21T00:45:39;408.80;;;382.02;;
11039;SDS011;5573;49.592;8.662;2022-08-21T00:48:27;387.55;;;362.15;;
11039;SDS011;5573;49.592;8.662;2022-08-21T00:51:19;391.90;;;366.05;;
11039;SDS011;5573;49.592;8.662;2022-08-21T00:54:12;398.75;;;372.30;;
11039;SDS011;5573;49.592;8.662;2022-08-21T00:57:07;401.95;;;374.65;;
11039;SDS011;5573;49.592;8.662;2022-08-21T01:00:03;392.17;;;366.48;;
11039;SDS011;5573;49.592;8.662;2022-08-21T01:02:56;384.40;;;358.85;;
11039;SDS011;5573;49.592;8.662;2022-08-21T01:05:45;386.35;;;360.73;;
11039;SDS011;5573;49.592;8.662;2022-08-21T01:08:35;396.95;;;370.20;;
11039;SDS011;5573;49.592;8.662;2022-08-21T01:11:32;376.08;;;351.30;;
11039;SDS011;5573;49.592;8.662;2022-08-21T01:14:20;391.38;;;365.52;;
11039;SDS011;5573;49.592;8.662;2022-08-21T01:17:09;378.95;;;354.35;;
11039;SDS011;5573;49.592;8.662;2022-08-21T01:19:58;385.52;;;360.38;;
11039;SDS011;5573;49.592;8.662;2022-08-21T01:22:47;374.17;;;349.73;;
11039;SDS011;5573;49.592;8.662;2022-08-21T01:25:35;376.15;;;351.58;;
11039;SDS011;5573;49.592;8.662;2022-08-21T01:28:24;383.90;;;359.30;;
11039;SDS011;5573;49.592;8.662;2022-08-21T01:31:14;365.98;;;342.73;;
11039;SDS011;5573;49.592;8.662;2022-08-21T01:34:12;382.08;;;357.30;;
11039;SDS011;5573;49.592;8.662;2022-08-21T01:37:02;386.27;;;361.27;;
11039;SDS011;5573;49.592;8.662;2022-08-21T01:39:51;371.45;;;347.88;;
11039;SDS011;5573;49.592;8.662;2022-08-21T01:42:40;372.88;;;349.00;;
11039;SDS011;5573;49.592;8.662;2022-08-21T01:45:28;354.40;;;331.95;;
11039;SDS011;5573;49.592;8.662;2022-08-21T01:48:16;381.13;;;357.05;;
11039;SDS011;5573;49.592;8.662;2022-08-21T01:51:05;366.88;;;344.27;;
11039;SDS011;5573;49.592;8.662;2022-08-21T01:53:53;382.23;;;358.15;;
11039;SDS011;5573;49.592;8.662;2022-08-21T01:56:43;385.27;;;360.77;;
11039;SDS011;5573;49.592;8.662;2022-08-21T01:59:34;373.90;;;350.23;;
11039;SDS011;5573;49.592;8.662;2022-08-21T02:02:23;362.17;;;339.15;;
11039;SDS011;5573;49.592;8.662;2022-08-21T02:05:11;373.40;;;349.58;;
11039;SDS011;5573;49.592;8.662;2022-08-21T02:08:01;361.98;;;338.92;;
11039;SDS011;5573;49.592;8.662;2022-08-21T02:10:50;354.30;;;331.55;;
11039;SDS011;5573;49.592;8.662;2022-08-21T02:13:40;362.20;;;338.80;;
11039;SDS011;5573;49.592;8.662;2022-08-21T02:16:28;353.60;;;331.42;;
11039;SDS011;5573;49.592;8.662;2022-08-21T02:19:18;372.13;;;347.92;;
11039;SDS011;5573;49.592;8.662;2022-08-21T02:22:07;359.48;;;336.65;;
11039;SDS011;5573;49.592;8.662;2022-08-21T02:24:56;356.48;;;333.38;;
11039;SDS011;5573;49.592;8.662;2022-08-21T02:27:44;357.05;;;334.17;;
11039;SDS011;5573;49.592;8.662;2022-08-21T02:30:36;360.25;;;337.10;;
11039;SDS011;5573;49.592;8.662;2022-08-21T02:33:26;340.38;;;318.67;;
11039;SDS011;5573;49.592;8.662;2022-08-21T02:36:14;343.20;;;321.35;;
11039;SDS011;5573;49.592;8.662;2022-08-21T02:39:02;343.08;;;321.70;;
11039;SDS011;5573;49.592;8.662;2022-08-21T02:41:50;360.48;;;337.65;;
11039;SDS011;5573;49.592;8.662;2022-08-21T02:44:38;350.58;;;328.25;;
11039;SDS011;5573;49.592;8.662;2022-08-21T02:47:28;339.45;;;317.52;;
11039;SDS011;5573;49.592;8.662;2022-08-21T02:50:17;341.38;;;319.75;;
11039;SDS011;5573;49.592;8.662;2022-08-21T02:53:08;350.05;;;328.42;;
11039;SDS011;5573;49.592;8.662;2022-08-21T02:55:58;352.92;;;330.67;;
11039;SDS011;5573;49.592;8.662;2022-08-21T02:58:48;350.88;;;328.98;;
11039;SDS011;5573;49.592;8.662;2022-08-21T03:01:37;358.40;;;336.05;;
11039;SDS011;5573;49.592;8.662;2022-08-21T03:04:27;359.15;;;336.73;;
11039;SDS011;5573;49.592;8.662;2022-08-21T03:07:15;334.60;;;314.25;;
11039;SDS011;5573;49.592;8.662;2022-08-21T03:10:03;347.17;;;325.20;;
11039;SDS011;5573;49.592;8.662;2022-08-21T03:12:52;353.13;;;330.85;;
11039;SDS011;5573;49.592;8.662;2022-08-21T03:15:41;336.50;;;315.27;;
11039;SDS011;5573;49.592;8.662;2022-08-21T03:18:30;354.25;;;332.55;;
11039;SDS011;5573;49.592;8.662;2022-08-21T03:21:19;340.23;;;318.00;;
11039;SDS011;5573;49.592;8.662;2022-08-21T03:24:07;352.17;;;329.40;;
11039;SDS011;5573;49.592;8.662;2022-08-21T03:26:55;337.42;;;316.23;;
11039;SDS011;5573;49.592;8.662;2022-08-21T03:29:43;330.02;;;308.75;;
11039;SDS011;5573;49.592;8.662;2022-08-21T03:32:32;340.85;;;319.00;;
11039;SDS011;5573;49.592;8.662;2022-08-21T03:35:20;333.33;;;312.50;;
11039;SDS011;5573;49.592;8.662;2022-08-21T03:38:09;328.83;;;308.48;;
11039;SDS011;5573;49.592;8.662;2022-08-21T03:40:59;311.58;;;291.50;;
11039;SDS011;5573;49.592;8.662;2022-08-21T03:43:49;333.33;;;312.15;;
11039;SDS011;5573;49.592;8.662;2022-08-21T03:46:37;321.60;;;301.83;;
11039;SDS011;5573;49.592;8.662;2022-08-21T03:49:26;335.42;;;314.27;;
11039;SDS011;5573;49.592;8.662;2022-08-21T03:52:15;328.00;;;307.48;;
11039;SDS011;5573;49.592;8.662;2022-08-21T03:55:05;324.85;;;305.17;;
11039;SDS011;5573;49.592;8.662;2022-08-21T03:57:54;324.23;;;303.98;;
11039;SDS011;5573;49.592;8.662;2022-08-21T04:00:42;303.33;;;284.33;;
11039;SDS011;5573;49.592;8.662;2022-08-21T04:03:31;337.85;;;316.30;;
11039;SDS011;5573;49.592;8.662;2022-08-21T04:06:19;323.58;;;303.05;;
11039;SDS011;5573;49.592;8.662;2022-08-21T04:09:07;311.15;;;291.52;;
11039;SDS011;5573;49.592;8.662;2022-08-21T04:11:57;325.60;;;305.30;;
11039;SDS011;5573;49.592;8.662;2022-08-21T04:14:46;322.25;;;301.65;;
11039;SDS011;5573;49.592;8.662;2022-08-21T04:17:35;302.10;;;283.70;;
11039;SDS011;5573;49.592;8.662;2022-08-21T04:20:23;318.58;;;298.08;;
11039;SDS011;5573;49.592;8.662;2022-08-21T04:23:11;306.05;;;286.33;;
11039;SDS011;5573;49.592;8.662;2022-08-21T04:26:10;294.63;;;275.98;;
11039;SDS011;5573;49.592;8.662;2022-08-21T04:28:59;300.75;;;282.05;;
11039;SDS011;5573;49.592;8.662;2022-08-21T04:31:48;296.73;;;277.48;;
11039;SDS011;5573;49.592;8.662;2022-08-21T04:34:36;307.60;;;288.20;;
11039;SDS011;5573;49.592;8.662;2022-08-21T04:37:24;299.17;;;280.33;;
11039;SDS011;5573;49.592;8.662;2022-08-21T04:40:13;300.45;;;281.13;;
11039;SDS011;5573;49.592;8.662;2022-08-21T04:43:03;289.35;;;271.23;;
11039;SDS011;5573;49.592;8.662;2022-08-21T04:45:54;295.40;;;276.52;;
11039;SDS011;5573;49.592;8.662;2022-08-21T04:48:42;280.77;;;262.80;;
11039;SDS011;5573;49.592;8.662;2022-08-21T04:51:31;292.17;;;273.17;;
11039;SDS011;5573;49.592;8.662;2022-08-21T04:54:22;292.80;;;274.02;;
11039;SDS011;5573;49.592;8.662;2022-08-21T04:57:10;289.05;;;270.30;;
11039;SDS011;5573;49.592;8.662;2022-08-21T05:00:00;267.98;;;251.43;;
11039;SDS011;5573;49.592;8.662;2022-08-21T05:02:50;287.10;;;268.50;;
11039;SDS011;5573;49.592;8.662;2022-08-21T05:05:43;280.55;;;262.65;;
11039;SDS011;5573;49.592;8.662;2022-08-21T05:08:31;290.98;;;272.25;;
11039;SDS011;5573;49.592;8.662;2022-08-21T05:11:20;286.50;;;268.05;;
11039;SDS011;5573;49.592;8.662;2022-08-21T05:14:11;307.27;;;287.23;;
11039;SDS011;5573;49.592;8.662;2022-08-21T05:16:59;283.70;;;265.75;;
11039;SDS011;5573;49.592;8.662;2022-08-21T05:19:49;273.23;;;255.93;;
11039;SDS011;5573;49.592;8.662;2022-08-21T05:22:37;282.67;;;265.02;;
11039;SDS011;5573;49.592;8.662;2022-08-21T05:25:26;272.75;;;255.27;;
11039;SDS011;5573;49.592;8.662;2022-08-21T05:28:15;271.27;;;254.48;;
11039;SDS011;5573;49.592;8.662;2022-08-21T05:31:05;318.50;;;298.27;;
11039;SDS011;5573;49.592;8.662;2022-08-21T05:33:53;298.77;;;280.13;;
11039;SDS011;5573;49.592;8.662;2022-08-21T05:36:43;307.08;;;287.45;;
11039;SDS011;5573;49.592;8.662;2022-08-21T05:39:31;318.30;;;297.77;;
11039;SDS011;5573;49.592;8.662;2022-08-21T05:42:39;324.20;;;303.83;;
11039;SDS011;5573;49.592;8.662;2022-08-21T05:45:28;321.23;;;301.13;;
11039;SDS011;5573;49.592;8.662;2022-08-21T05:48:29;336.05;;;315.88;;
11039;SDS011;5573;49.592;8.662;2022-08-21T05:51:18;323.65;;;303.73;;
11039;SDS011;5573;49.592;8.662;2022-08-21T05:54:07;346.48;;;325.08;;
11039;SDS011;5573;49.592;8.662;2022-08-21T05:56:56;360.70;;;338.73;;
11039;SDS011;5573;49.592;8.662;2022-08-21T05:59:44;363.20;;;341.25;;
11039;SDS011;5573;49.592;8.662;2022-08-21T06:02:32;367.33;;;345.20;;
11039;SDS011;5573;49.592;8.662;2022-08-21T06:05:20;391.02;;;367.48;;
11039;SDS011;5573;49.592;8.662;2022-08-21T06:08:22;379.17;;;356.23;;
11039;SDS011;5573;49.592;8.662;2022-08-21T06:11:12;361.52;;;339.70;;
11039;SDS011;5573;49.592;8.662;2022-08-21T06:14:00;383.02;;;359.80;;
11039;SDS011;5573;49.592;8.662;2022-08-21T06:16:49;344.13;;;323.42;;
11039;SDS011;5573;49.592;8.662;2022-08-21T06:19:37;362.70;;;340.65;;
11039;SDS011;5573;49.592;8.662;2022-08-21T06:22:25;352.77;;;331.73;;
11039;SDS011;5573;49.592;8.662;2022-08-21T06:25:15;374.50;;;352.02;;
11039;SDS011;5573;49.592;8.662;2022-08-21T06:28:05;376.30;;;353.45;;
11039;SDS011;5573;49.592;8.662;2022-08-21T06:30:54;350.58;;;329.38;;
11039;SDS011;5573;49.592;8.662;2022-08-21T06:33:43;348.00;;;326.27;;
11039;SDS011;5573;49.592;8.662;2022-08-21T06:36:31;344.13;;;323.27;;
11039;SDS011;5573;49.592;8.662;2022-08-21T06:39:19;387.90;;;364.45;;
11039;SDS011;5573;49.592;8.662;2022-08-21T06:42:16;364.45;;;342.30;;
11039;SDS011;5573;49.592;8.662;2022-08-21T06:45:07;343.50;;;322.83;;
11039;SDS011;5573;49.592;8.662;2022-08-21T06:47:55;342.15;;;321.73;;
11039;SDS011;5573;49.592;8.662;2022-08-21T06:50:43;338.85;;;318.88;;
11039;SDS011;5573;49.592;8.662;2022-08-21T06:53:31;322.60;;;303.98;;
11039;SDS011;5573;49.592;8.662;2022-08-21T06:56:20;301.30;;;284.40;;
11039;SDS011;5573;49.592;8.662;2022-08-21T06:59:08;292.05;;;276.23;;
11039;SDS011;5573;49.592;8.662;2022-08-21T07:01:57;287.13;;;271.85;;
11039;SDS011;5573;49.592;8.662;2022-08-21T07:04:46;254.77;;;241.23;;
11039;SDS011;5573;49.592;8.662;2022-08-21T07:07:34;233.20;;;220.77;;
11039;SDS011;5573;49.592;8.662;2022-08-21T07:10:23;196.68;;;186.30;;
11039;SDS011;5573;49.592;8.662;2022-08-21T07:13:11;176.32;;;166.80;;
11039;SDS011;5573;49.592;8.662;2022-08-21T07:16:00;169.25;;;159.80;;
11039;SDS011;5573;49.592;8.662;2022-08-21T07:18:51;159.25;;;150.43;;
11039;SDS011;5573;49.592;8.662;2022-08-21T07:21:39;160.30;;;151.50;;
11039;SDS011;5573;49.592;8.662;2022-08-21T07:24:27;152.25;;;143.52;;
11039;SDS011;5573;49.592;8.662;2022-08-21T07:27:16;151.15;;;142.88;;
11039;SDS011;5573;49.592;8.662;2022-08-21T07:30:04;141.45;;;133.77;;
11039;SDS011;5573;49.592;8.662;2022-08-21T07:32:54;147.27;;;139.18;;
11039;SDS011;5573;49.592;8.662;2022-08-21T07:35:43;140.98;;;133.18;;
11039;SDS011;5573;49.592;8.662;2022-08-21T07:38:32;145.07;;;137.13;;
11039;SDS011;5573;49.592;8.662;2022-08-21T07:41:21;145.32;;;137.30;;
11039;SDS011;5573;49.592;8.662;2022-08-21T07:44:12;141.00;;;133.25;;
11039;SDS011;5573;49.592;8.662;2022-08-21T07:47:00;144.05;;;136.30;;
11039;SDS011;5573;49.592;8.662;2022-08-21T07:49:48;133.00;;;125.82;;
11039;SDS011;5573;49.592;8.662;2022-08-21T07:52:38;125.72;;;118.97;;
11039;SDS011;5573;49.592;8.662;2022-08-21T07:55:26;119.75;;;113.30;;
11039;SDS011;5573;49.592;8.662;2022-08-21T07:58:14;122.47;;;115.80;;
11039;SDS011;5573;49.592;8.662;2022-08-21T08:01:02;117.55;;;111.35;;
11039;SDS011;5573;49.592;8.662;2022-08-21T08:03:50;117.13;;;110.88;;
11039;SDS011;5573;49.592;8.662;2022-08-21T08:06:39;113.28;;;107.32;;
11039;SDS011;5573;49.592;8.662;2022-08-21T08:09:28;105.53;;;99.93;;
11039;SDS011;5573;49.592;8.662;2022-08-21T08:12:16;106.97;;;101.28;;
11039;SDS011;5573;49.592;8.662;2022-08-21T08:15:05;102.57;;;97.15;;
11039;SDS011;5573;49.592;8.662;2022-08-21T08:17:55;94.00;;;89.03;;
11039;SDS011;5573;49.592;8.662;2022-08-21T08:20:44;95.53;;;90.47;;
11039;SDS011;5573;49.592;8.662;2022-08-21T08:23:32;90.00;;;85.20;;
11039;SDS011;5573;49.592;8.662;2022-08-21T08:26:22;84.15;;;79.72;;
11039;SDS011;5573;49.592;8.662;2022-08-21T08:29:10;79.53;;;75.32;;
11039;SDS011;5573;49.592;8.662;2022-08-21T08:31:58;75.30;;;71.20;;
11039;SDS011;5573;49.592;8.662;2022-08-21T08:34:46;68.03;;;64.35;;
11039;SDS011;5573;49.592;8.662;2022-08-21T08:37:38;70.15;;;66.43;;
11039;SDS011;5573;49.592;8.662;2022-08-21T08:40:28;68.30;;;64.65;;
11039;SDS011;5573;49.592;8.662;2022-08-21T08:43:25;67.75;;;64.10;;
11039;SDS011;5573;49.592;8.662;2022-08-21T08:46:16;71.45;;;67.63;;
11039;SDS011;5573;49.592;8.662;2022-08-21T08:49:09;68.68;;;64.97;;
11039;SDS011;5573;49.592;8.662;2022-08-21T08:52:05;65.78;;;62.30;;
11039;SDS011;5573;49.592;8.662;2022-08-21T08:55:02;59.00;;;55.83;;
11039;SDS011;5573;49.592;8.662;2022-08-21T08:57:52;62.67;;;59.22;;
11039;SDS011;5573;49.592;8.662;2022-08-21T09:00:43;56.10;;;52.63;;
11039;SDS011;5573;49.592;8.662;2022-08-21T09:03:36;53.38;;;50.45;;
11039;SDS011;5573;49.592;8.662;2022-08-21T09:06:34;48.20;;;45.60;;
11039;SDS011;5573;49.592;8.662;2022-08-21T09:09:34;46.08;;;43.67;;
11039;SDS011;5573;49.592;8.662;2022-08-21T09:12:38;40.45;;;38.35;;
11039;SDS011;5573;49.592;8.662;2022-08-21T09:15:34;38.00;;;36.00;;
11039;SDS011;5573;49.592;8.662;2022-08-21T09:18:34;37.83;;;35.78;;
11039;SDS011;5573;49.592;8.662;2022-08-21T09:21:35;36.63;;;34.70;;
11039;SDS011;5573;49.592;8.662;2022-08-21T09:24:32;35.00;;;33.10;;
11039;SDS011;5573;49.592;8.662;2022-08-21T09:27:26;32.63;;;30.88;;
11039;SDS011;5573;49.592;8.662;2022-08-21T09:30:14;33.20;;;31.42;;
11039;SDS011;5573;49.592;8.662;2022-08-21T09:33:02;25.77;;;24.38;;
11039;SDS011;5573;49.592;8.662;2022-08-21T09:35:53;24.15;;;22.80;;
11039;SDS011;5573;49.592;8.662;2022-08-21T09:38:51;22.25;;;21.08;;
11039;SDS011;5573;49.592;8.662;2022-08-21T09:41:41;23.58;;;22.17;;
11039;SDS011;5573;49.592;8.662;2022-08-21T09:44:30;22.05;;;20.75;;
11039;SDS011;5573;49.592;8.662;2022-08-21T09:47:20;18.20;;;17.25;;
11039;SDS011;5573;49.592;8.662;2022-08-21T09:50:14;19.33;;;18.33;;
11039;SDS011;5573;49.592;8.662;2022-08-21T09:53:04;19.70;;;18.70;;
11039;SDS011;5573;49.592;8.662;2022-08-21T09:56:03;20.38;;;19.17;;
11039;SDS011;5573;49.592;8.662;2022-08-21T09:59:24;19.38;;;18.33;;
11039;SDS011;5573;49.592;8.662;2022-08-21T10:02:25;19.58;;;18.58;;
11039;SDS011;5573;49.592;8.662;2022-08-21T10:05:17;20.95;;;19.85;;
11039;SDS011;5573;49.592;8.662;2022-08-21T10:08:17;21.52;;;20.33;;
11039;SDS011;5573;49.592;8.662;2022-08-21T10:11:07;21.48;;;20.38;;
11039;SDS011;5573;49.592;8.662;2022-08-21T10:13:58;22.88;;;21.67;;
11039;SDS011;5573;49.592;8.662;2022-08-21T10:16:56;24.35;;;23.00;;
11039;SDS011;5573;49.592;8.662;2022-08-21T10:19:52;23.17;;;22.00;;
11039;SDS011;5573;49.592;8.662;2022-08-21T10:22:45;21.15;;;20.05;;
11039;SDS011;5573;49.592;8.662;2022-08-21T10:25:50;22.42;;;21.23;;
11039;SDS011;5573;49.592;8.662;2022-08-21T10:29:02;22.98;;;21.77;;
11039;SDS011;5573;49.592;8.662;2022-08-21T10:31:58;22.38;;;21.17;;
11039;SDS011;5573;49.592;8.662;2022-08-21T10:35:13;22.35;;;21.20;;
11039;SDS011;5573;49.592;8.662;2022-08-21T10:38:22;23.23;;;21.92;;
11039;SDS011;5573;49.592;8.662;2022-08-21T10:41:50;20.50;;;19.30;;
11039;SDS011;5573;49.592;8.662;2022-08-21T10:44:57;19.17;;;18.17;;
11039;SDS011;5573;49.592;8.662;2022-08-21T10:48:00;19.33;;;18.33;;
11039;SDS011;5573;49.592;8.662;2022-08-21T10:50:53;18.45;;;17.45;;
11039;SDS011;5573;49.592;8.662;2022-08-21T10:53:50;19.48;;;18.48;;
11039;SDS011;5573;49.592;8.662;2022-08-21T10:56:49;20.17;;;19.17;;
11039;SDS011;5573;49.592;8.662;2022-08-21T10:59:48;20.20;;;19.10;;
11039;SDS011;5573;49.592;8.662;2022-08-21T11:02:44;21.52;;;20.25;;
11039;SDS011;5573;49.592;8.662;2022-08-21T11:05:39;21.33;;;20.15;;
11039;SDS011;5573;49.592;8.662;2022-08-21T11:08:37;21.88;;;20.58;;
11039;SDS011;5573;49.592;8.662;2022-08-21T11:11:31;21.77;;;20.58;;
11039;SDS011;5573;49.592;8.662;2022-08-21T11:14:28;22.42;;;21.30;;
11039;SDS011;5573;49.592;8.662;2022-08-21T11:17:22;20.25;;;19.23;;
11039;SDS011;5573;49.592;8.662;2022-08-21T11:20:18;19.02;;;18.02;;
11039;SDS011;5573;49.592;8.662;2022-08-21T11:23:17;14.88;;;14.07;;
11039;SDS011;5573;49.592;8.662;2022-08-21T11:26:12;14.43;;;13.50;;
11039;SDS011;5573;49.592;8.662;2022-08-21T11:29:04;13.52;;;12.73;;
11039;SDS011;5573;49.592;8.662;2022-08-21T11:32:03;12.82;;;12.13;;
11039;SDS011;5573;49.592;8.662;2022-08-21T11:35:08;13.35;;;12.65;;
11039;SDS011;5573;49.592;8.662;2022-08-21T11:38:05;12.50;;;11.80;;
11039;SDS011;5573;49.592;8.662;2022-08-21T11:41:13;12.23;;;11.63;;
11039;SDS011;5573;49.592;8.662;2022-08-21T11:44:11;12.10;;;11.50;;
11039;SDS011;5573;49.592;8.662;2022-08-21T11:47:12;12.65;;;11.95;;
11039;SDS011;5573;49.592;8.662;2022-08-21T11:50:13;12.73;;;11.93;;
11039;SDS011;5573;49.592;8.662;2022-08-21T11:53:22;12.85;;;12.15;;
11039;SDS011;5573;49.592;8.662;2022-08-21T11:56:17;14.13;;;13.43;;
11039;SDS011;5573;49.592;8.662;2022-08-21T11:59:11;13.93;;;13.20;;
11039;SDS011;5573;49.592;8.662;2022-08-21T12:02:09;14.07;;;13.38;;
11039;SDS011;5573;49.592;8.662;2022-08-21T12:05:03;13.48;;;12.77;;
11039;SDS011;5573;49.592;8.662;2022-08-21T12:08:05;10.85;;;10.35;;
11039;SDS011;5573;49.592;8.662;2022-08-21T12:11:02;11.35;;;10.75;;
11039;SDS011;5573;49.592;8.662;2022-08-21T12:13:54;9.85;;;9.25;;
11039;SDS011;5573;49.592;8.662;2022-08-21T12:16:44;9.77;;;9.27;;
11039;SDS011;5573;49.592;8.662;2022-08-21T12:19:35;9.48;;;8.98;;
11039;SDS011;5573;49.592;8.662;2022-08-21T12:22:30;10.68;;;10.07;;
11039;SDS011;5573;49.592;8.662;2022-08-21T12:25:35;10.15;;;9.57;;
11039;SDS011;5573;49.592;8.662;2022-08-21T12:28:28;10.35;;;9.85;;
11039;SDS011;5573;49.592;8.662;2022-08-21T12:31:19;10.02;;;9.52;;
11039;SDS011;5573;49.592;8.662;2022-08-21T12:34:09;11.32;;;10.73;;
11039;SDS011;5573;49.592;8.662;2022-08-21T12:37:00;10.48;;;9.95;;
11039;SDS011;5573;49.592;8.662;2022-08-21T12:39:52;10.23;;;9.73;;
11039;SDS011;5573;49.592;8.662;2022-08-21T12:42:44;11.43;;;10.82;;
11039;SDS011;5573;49.592;8.662;2022-08-21T12:45:45;11.15;;;10.55;;
11039;SDS011;5573;49.592;8.662;2022-08-21T12:48:39;10.88;;;10.27;;
11039;SDS011;5573;49.592;8.662;2022-08-21T12:51:34;10.32;;;9.82;;
11039;SDS011;5573;49.592;8.662;2022-08-21T12:54:36;9.95;;;9.45;;
11039;SDS011;5573;49.592;8.662;2022-08-21T12:57:27;10.10;;;9.50;;
11039;SDS011;5573;49.592;8.662;2022-08-21T13:00:19;10.35;;;9.82;;
11039;SDS011;5573;49.592;8.662;2022-08-21T13:03:09;11.85;;;11.25;;
11039;SDS011;5573;49.592;8.662;2022-08-21T13:05:57;11.45;;;10.85;;
11039;SDS011;5573;49.592;8.662;2022-08-21T13:08:46;11.57;;;10.88;;
11039;SDS011;5573;49.592;8.662;2022-08-21T13:11:40;11.48;;;10.88;;
11039;SDS011;5573;49.592;8.662;2022-08-21T13:14:33;11.57;;;10.93;;
11039;SDS011;5573;49.592;8.662;2022-08-21T13:17:34;11.98;;;11.27;;
11039;SDS011;5573;49.592;8.662;2022-08-21T13:20:25;12.27;;;11.48;;
11039;SDS011;5573;49.592;8.662;2022-08-21T13:23:19;10.90;;;10.30;;
11039;SDS011;5573;49.592;8.662;2022-08-21T13:26:12;10.13;;;9.52;;
11039;SDS011;5573;49.592;8.662;2022-08-21T13:29:07;9.90;;;9.30;;
11039;SDS011;5573;49.592;8.662;2022-08-21T13:32:00;9.50;;;9.00;;
11039;SDS011;5573;49.592;8.662;2022-08-21T13:34:50;9.35;;;8.85;;
11039;SDS011;5573;49.592;8.662;2022-08-21T13:37:40;9.25;;;8.75;;
11039;SDS011;5573;49.592;8.662;2022-08-21T13:40:31;9.57;;;8.95;;
11039;SDS011;5573;49.592;8.662;2022-08-21T13:43:28;9.43;;;8.93;;
11039;SDS011;5573;49.592;8.662;2022-08-21T13:46:20;10.02;;;9.35;;
11039;SDS011;5573;49.592;8.662;2022-08-21T13:49:12;9.63;;;9.13;;
11039;SDS011;5573;49.592;8.662;2022-08-21T13:52:03;10.73;;;10.13;;
11039;SDS011;5573;49.592;8.662;2022-08-21T13:54:53;10.45;;;9.85;;
11039;SDS011;5573;49.592;8.662;2022-08-21T13:57:43;10.65;;;9.95;;
11039;SDS011;5573;49.592;8.662;2022-08-21T14:00:32;10.70;;;10.13;;
11039;SDS011;5573;49.592;8.662;2022-08-21T14:03:29;10.40;;;9.80;;
11039;SDS011;5573;49.592;8.662;2022-08-21T14:06:21;10.55;;;9.95;;
11039;SDS011;5573;49.592;8.662;2022-08-21T14:09:12;10.30;;;9.80;;
11039;SDS011;5573;49.592;8.662;2022-08-21T14:12:13;11.55;;;10.95;;
11039;SDS011;5573;49.592;8.662;2022-08-21T14:15:09;12.05;;;11.45;;
11039;SDS011;5573;49.592;8.662;2022-08-21T14:18:07;12.48;;;11.77;;
11039;SDS011;5573;49.592;8.662;2022-08-21T14:21:05;12.43;;;11.82;;
11039;SDS011;5573;49.592;8.662;2022-08-21T14:24:02;13.15;;;12.45;;
11039;SDS011;5573;49.592;8.662;2022-08-21T14:26:53;13.30;;;12.60;;
11039;SDS011;5573;49.592;8.662;2022-08-21T14:29:43;13.18;;;12.45;;
11039;SDS011;5573;49.592;8.662;2022-08-21T14:32:35;11.48;;;10.88;;
11039;SDS011;5573;49.592;8.662;2022-08-21T14:35:30;12.13;;;11.52;;
11039;SDS011;5573;49.592;8.662;2022-08-21T14:38:22;12.77;;;12.07;;
11039;SDS011;5573;49.592;8.662;2022-08-21T14:41:15;12.02;;;11.23;;
11039;SDS011;5573;49.592;8.662;2022-08-21T14:44:04;12.05;;;11.35;;
11039;SDS011;5573;49.592;8.662;2022-08-21T14:46:55;13.10;;;12.30;;
11039;SDS011;5573;49.592;8.662;2022-08-21T14:49:43;12.23;;;11.52;;
11039;SDS011;5573;49.592;8.662;2022-08-21T14:52:31;12.10;;;11.48;;
11039;SDS011;5573;49.592;8.662;2022-08-21T14:55:21;12.23;;;11.52;;
11039;SDS011;5573;49.592;8.662;2022-08-21T14:58:09;12.40;;;11.70;;
11039;SDS011;5573;49.592;8.662;2022-08-21T15:00:57;12.88;;;12.18;;
11039;SDS011;5573;49.592;8.662;2022-08-21T15:03:50;12.38;;;11.77;;
11039;SDS011;5573;49.592;8.662;2022-08-21T15:06:38;13.40;;;12.60;;
11039;SDS011;5573;49.592;8.662;2022-08-21T15:09:26;12.32;;;11.60;;
11039;SDS011;5573;49.592;8.662;2022-08-21T15:12:16;11.95;;;11.35;;
11039;SDS011;5573;49.592;8.662;2022-08-21T15:15:04;12.02;;;11.43;;
11039;SDS011;5573;49.592;8.662;2022-08-21T15:17:54;11.95;;;11.35;;
11039;SDS011;5573;49.592;8.662;2022-08-21T15:20:42;12.60;;;11.95;;
11039;SDS011;5573;49.592;8.662;2022-08-21T15:23:30;13.05;;;12.35;;
11039;SDS011;5573;49.592;8.662;2022-08-21T15:26:18;12.68;;;11.98;;
11039;SDS011;5573;49.592;8.662;2022-08-21T15:29:08;12.45;;;11.85;;
11039;SDS011;5573;49.592;8.662;2022-08-21T15:31:58;12.90;;;12.27;;
11039;SDS011;5573;49.592;8.662;2022-08-21T15:34:47;13.30;;;12.60;;
11039;SDS011;5573;49.592;8.662;2022-08-21T15:37:35;13.52;;;12.73;;
11039;SDS011;5573;49.592;8.662;2022-08-21T15:40:23;13.00;;;12.30;;
11039;SDS011;5573;49.592;8.662;2022-08-21T15:43:16;13.60;;;12.90;;
11039;SDS011;5573;49.592;8.662;2022-08-21T15:46:17;15.32;;;14.32;;
11039;SDS011;5573;49.592;8.662;2022-08-21T15:49:07;14.80;;;14.02;;
11039;SDS011;5573;49.592;8.662;2022-08-21T15:51:56;16.23;;;15.32;;
11039;SDS011;5573;49.592;8.662;2022-08-21T15:54:44;15.80;;;14.90;;
11039;SDS011;5573;49.592;8.662;2022-08-21T15:57:33;16.33;;;15.50;;
11039;SDS011;5573;49.592;8.662;2022-08-21T16:00:23;16.10;;;15.27;;
11039;SDS011;5573;49.592;8.662;2022-08-21T16:03:14;16.17;;;15.30;;
11039;SDS011;5573;49.592;8.662;2022-08-21T16:06:08;15.88;;;15.02;;
11039;SDS011;5573;49.592;8.662;2022-08-21T16:08:56;16.73;;;15.82;;
11039;SDS011;5573;49.592;8.662;2022-08-21T16:11:44;15.82;;;15.00;;
11039;SDS011;5573;49.592;8.662;2022-08-21T16:14:33;15.80;;;14.90;;
11039;SDS011;5573;49.592;8.662;2022-08-21T16:17:23;16.05;;;15.25;;
11039;SDS011;5573;49.592;8.662;2022-08-21T16:20:17;15.85;;;15.05;;
11039;SDS011;5573;49.592;8.662;2022-08-21T16:23:07;15.35;;;14.55;;
11039;SDS011;5573;49.592;8.662;2022-08-21T16:25:56;15.20;;;14.40;;
11039;SDS011;5573;49.592;8.662;2022-08-21T16:28:54;13.27;;;12.57;;
11039;SDS011;5573;49.592;8.662;2022-08-21T16:31:44;15.15;;;14.35;;
11039;SDS011;5573;49.592;8.662;2022-08-21T16:34:32;16.50;;;15.63;;
11039;SDS011;5573;49.592;8.662;2022-08-21T16:37:22;16.85;;;15.68;;
11039;SDS011;5573;49.592;8.662;2022-08-21T16:40:10;16.65;;;15.82;;
11039;SDS011;5573;49.592;8.662;2022-08-21T16:42:59;17.92;;;17.02;;
11039;SDS011;5573;49.592;8.662;2022-08-21T16:45:48;16.90;;;16.00;;